createdAt,value
2019-01-11T00:00:01.543Z,101218.89
2019-01-11T00:02:33.322Z,101212.23
2019-01-11T00:05:01.651Z,101206.27
2019-01-11T00:07:29.969Z,101203.49
2019-01-11T00:09:58.405Z,101210.77
2019-01-11T00:12:26.757Z,101208.85
2019-01-11T00:14:55.167Z,101208.25
2019-01-11T00:17:23.511Z,101203.30
2019-01-11T00:19:51.886Z,101197.05
2019-01-11T00:22:20.205Z,101190.44
2019-01-11T00:24:48.551Z,101201.77
2019-01-11T00:27:17.322Z,101204.17
2019-01-11T00:29:45.737Z,101202.52
2019-01-11T00:32:14.269Z,101192.87
2019-01-11T00:34:42.680Z,101202.09
2019-01-11T00:37:11.253Z,101195.69
2019-01-11T00:39:39.542Z,101188.10
2019-01-11T00:42:07.902Z,101189.95
2019-01-11T00:44:36.383Z,101191.47
2019-01-11T00:47:04.762Z,101186.70
2019-01-11T00:49:33.069Z,101186.42
2019-01-11T00:52:01.421Z,101177.11
2019-01-11T00:54:29.770Z,101179.67
2019-01-11T00:56:58.222Z,101184.61
2019-01-11T00:59:26.548Z,101182.85
2019-01-11T01:01:54.893Z,101188.14
2019-01-11T01:04:23.223Z,101186.26
2019-01-11T01:06:51.615Z,101185.46
2019-01-11T01:09:20.175Z,101176.95
2019-01-11T01:11:48.589Z,101180.60
2019-01-11T01:14:17.444Z,101183.53
2019-01-11T01:16:45.789Z,101180.56
2019-01-11T01:19:19.896Z,101175.47
2019-01-11T01:21:44.766Z,101175.16
2019-01-11T01:24:13.581Z,101172.34
2019-01-11T01:26:41.956Z,101176.92
2019-01-11T01:29:10.367Z,101176.84
2019-01-11T01:31:38.760Z,101173.06
2019-01-11T01:34:07.268Z,101164.33
2019-01-11T01:36:35.608Z,101168.73
2019-01-11T01:39:07.203Z,101168.97
2019-01-11T01:41:35.737Z,101169.91
2019-01-11T01:44:04.372Z,101171.50
2019-01-11T01:46:32.779Z,101166.34
2019-01-11T01:49:01.245Z,101165.84
2019-01-11T01:51:29.549Z,101171.34
2019-01-11T01:53:57.978Z,101165.41
2019-01-11T01:56:26.322Z,101165.05
2019-01-11T01:58:54.629Z,101165.57
2019-01-11T02:01:23.131Z,101168.86
2019-01-11T02:03:51.459Z,101168.22
2019-01-11T02:06:20.516Z,101162.72
2019-01-11T02:08:48.849Z,101164.05
2019-01-11T02:11:17.352Z,101160.44
2019-01-11T02:13:45.705Z,101157.50
2019-01-11T02:16:14.438Z,101154.25
2019-01-11T02:18:42.785Z,101157.83
2019-01-11T02:21:11.186Z,101160.80
2019-01-11T02:23:39.528Z,101164.89
2019-01-11T02:26:07.905Z,101166.09
2019-01-11T02:28:36.285Z,101159.79
2019-01-11T02:31:04.742Z,101161.47
2019-01-11T02:33:33.090Z,101151.01
2019-01-11T02:36:01.402Z,101157.80
2019-01-11T02:38:29.736Z,101154.22
2019-01-11T02:40:58.069Z,101152.54
2019-01-11T02:43:26.431Z,101158.03
2019-01-11T02:45:54.761Z,101155.51
2019-01-11T02:48:23.278Z,101144.23
2019-01-11T02:50:51.698Z,101152.17
2019-01-11T02:53:20.051Z,101151.58
2019-01-11T02:55:48.905Z,101151.02
2019-01-11T02:58:17.289Z,101155.05
2019-01-11T03:00:45.658Z,101150.09
2019-01-11T03:03:14.021Z,101143.11
2019-01-11T03:05:42.351Z,101148.28
2019-01-11T03:08:10.778Z,101148.32
2019-01-11T03:10:39.106Z,101148.28
2019-01-11T03:13:07.487Z,101145.92
2019-01-11T03:15:35.849Z,101142.39
2019-01-11T03:18:04.315Z,101139.45
2019-01-11T03:20:32.675Z,101136.88
2019-01-11T03:23:01.125Z,101136.17
2019-01-11T03:25:29.551Z,101135.09
2019-01-11T03:27:57.877Z,101134.98
2019-01-11T03:30:26.300Z,101129.70
2019-01-11T03:32:54.629Z,101125.44
2019-01-11T03:35:23.067Z,101131.20
2019-01-11T03:37:51.792Z,101126.52
2019-01-11T03:40:21.477Z,101124.98
2019-01-11T03:42:49.925Z,101132.84
2019-01-11T03:45:20.274Z,101132.52
2019-01-11T03:47:48.751Z,101130.08
2019-01-11T03:50:18.564Z,101127.71
2019-01-11T03:52:46.974Z,101126.90
2019-01-11T03:55:15.767Z,101128.45
2019-01-11T03:57:44.346Z,101128.81
2019-01-11T04:00:16.258Z,101125.04
2019-01-11T04:02:44.564Z,101131.45
2019-01-11T04:05:13.684Z,101128.87
2019-01-11T04:07:42.119Z,101130.75
2019-01-11T04:10:16.093Z,101128.87
2019-01-11T04:12:44.575Z,101135.11
2019-01-11T04:15:17.053Z,101126.29
2019-01-11T04:17:47.507Z,101133.92
2019-01-11T04:20:17.813Z,101132.91
2019-01-11T04:22:48.165Z,101131.04
2019-01-11T04:25:18.945Z,101125.63
2019-01-11T04:27:47.425Z,101121.78
2019-01-11T04:30:16.722Z,101123.34
2019-01-11T04:32:45.052Z,101124.66
2019-01-11T04:35:13.677Z,101130.38
2019-01-11T04:37:42.041Z,101130.42
2019-01-11T04:40:12.674Z,101136.73
2019-01-11T04:42:40.998Z,101133.92
2019-01-11T04:45:10.415Z,101130.48
2019-01-11T04:47:38.717Z,101129.72
2019-01-11T04:50:10.067Z,101129.78
2019-01-11T04:52:38.468Z,101122.56
2019-01-11T04:55:07.344Z,101127.19
2019-01-11T04:57:35.852Z,101127.00
2019-01-11T05:00:07.338Z,101124.66
2019-01-11T05:02:35.678Z,101118.05
2019-01-11T05:05:05.903Z,101123.45
2019-01-11T05:07:34.385Z,101121.55
2019-01-11T05:10:04.293Z,101119.02
2019-01-11T05:12:32.706Z,101115.54
2019-01-11T05:15:01.043Z,101115.72
2019-01-11T05:17:29.396Z,101115.59
2019-01-11T05:19:57.743Z,101118.61
2019-01-11T05:22:26.101Z,101110.19
2019-01-11T05:24:54.460Z,101113.44
2019-01-11T05:27:22.889Z,101112.88
2019-01-11T05:29:51.208Z,101113.67
2019-01-11T05:32:19.567Z,101115.06
2019-01-11T05:34:47.943Z,101111.99
2019-01-11T05:37:16.559Z,101112.83
2019-01-11T05:39:44.906Z,101106.77
2019-01-11T05:42:13.810Z,101109.05
2019-01-11T05:44:42.137Z,101102.75
2019-01-11T05:47:10.483Z,101096.67
2019-01-11T05:49:38.824Z,101098.65
2019-01-11T05:52:07.276Z,101095.53
2019-01-11T05:54:35.620Z,101098.11
2019-01-11T05:57:04.228Z,101092.58
2019-01-11T05:59:32.593Z,101100.23
2019-01-11T06:02:00.943Z,101099.67
2019-01-11T06:04:32.814Z,101093.31
2019-01-11T06:07:03.859Z,101097.23
2019-01-11T06:09:32.226Z,101088.16
2019-01-11T06:12:00.561Z,101089.09
2019-01-11T06:14:28.880Z,101075.71
2019-01-11T06:16:57.309Z,101077.73
2019-01-11T06:19:25.670Z,101081.13
2019-01-11T06:21:54.114Z,101071.44
2019-01-11T06:24:22.436Z,101074.45
2019-01-11T06:26:50.808Z,101072.90
2019-01-11T06:29:19.277Z,101070.53
2019-01-11T06:31:47.592Z,101066.28
2019-01-11T06:34:16.076Z,101068.20
2019-01-11T06:36:44.434Z,101067.78
2019-01-11T06:39:13.275Z,101069.69
2019-01-11T06:41:41.653Z,101066.09
2019-01-11T06:44:10.027Z,101067.30
2019-01-11T06:46:38.396Z,101069.58
2019-01-11T06:49:06.740Z,101065.97
2019-01-11T06:51:35.087Z,101067.53
2019-01-11T06:54:03.511Z,101070.72
2019-01-11T06:56:31.857Z,101067.19
2019-01-11T06:59:00.226Z,101071.39
2019-01-11T07:01:28.607Z,101062.55
2019-01-11T07:03:56.946Z,101058.83
2019-01-11T07:06:25.303Z,101059.92
2019-01-11T07:08:53.649Z,101053.59
2019-01-11T07:11:21.974Z,101051.59
2019-01-11T07:13:50.351Z,101049.19
2019-01-11T07:16:18.715Z,101050.06
2019-01-11T07:18:47.138Z,101053.00
2019-01-11T07:21:16.116Z,101046.63
2019-01-11T07:23:44.465Z,101048.59
2019-01-11T07:26:12.885Z,101053.91
2019-01-11T07:28:41.276Z,101056.52
2019-01-11T07:31:10.122Z,101051.83
2019-01-11T07:33:38.481Z,101055.58
2019-01-11T07:36:09.371Z,101055.80
2019-01-11T07:38:37.730Z,101062.05
2019-01-11T07:41:06.102Z,101060.16
2019-01-11T07:43:34.527Z,101053.55
2019-01-11T07:46:02.944Z,101054.79
2019-01-11T07:48:31.297Z,101053.73
2019-01-11T07:50:59.659Z,101051.19
2019-01-11T07:53:27.968Z,101052.08
2019-01-11T07:55:56.557Z,101049.34
2019-01-11T07:58:24.881Z,101045.17
2019-01-11T08:00:53.279Z,101044.54
2019-01-11T08:03:21.581Z,101039.88
2019-01-11T08:05:50.032Z,101038.02
2019-01-11T08:08:18.368Z,101041.73
2019-01-11T08:10:46.730Z,101036.45
2019-01-11T08:13:15.073Z,101037.89
2019-01-11T08:15:43.437Z,101037.81
2019-01-11T08:18:11.771Z,101036.18
2019-01-11T08:20:40.133Z,101029.83
2019-01-11T08:23:08.692Z,101034.41
2019-01-11T08:25:37.051Z,101030.94
2019-01-11T08:28:05.544Z,101035.25
2019-01-11T08:30:33.901Z,101036.08
2019-01-11T08:33:02.251Z,101036.42
2019-01-11T08:35:30.737Z,101039.67
2019-01-11T08:37:59.641Z,101039.09
2019-01-11T08:40:27.980Z,101034.14
2019-01-11T08:42:56.317Z,101036.16
2019-01-11T08:45:24.678Z,101042.02
2019-01-11T08:47:53.005Z,101039.49
2019-01-11T08:50:21.770Z,101030.72
2019-01-11T08:52:50.365Z,101032.16
2019-01-11T08:55:19.961Z,101028.31
2019-01-11T08:57:48.325Z,101027.44
2019-01-11T09:00:17.053Z,101023.59
2019-01-11T09:02:45.438Z,101028.03
2019-01-11T09:05:13.789Z,101028.12
2019-01-11T09:07:42.378Z,101026.05
2019-01-11T09:10:13.969Z,101030.44
2019-01-11T09:12:42.380Z,101031.67
2019-01-11T09:15:11.531Z,101028.37
2019-01-11T09:17:44.533Z,101025.31
2019-01-11T09:20:13.213Z,101029.00
2019-01-11T09:22:41.560Z,101025.31
2019-01-11T09:25:10.256Z,101026.27
2019-01-11T09:27:38.617Z,101027.23
2019-01-11T09:30:10.439Z,101035.64
2019-01-11T09:32:39.539Z,101035.67
2019-01-11T09:35:08.315Z,101032.55
2019-01-11T09:37:36.677Z,101030.80
2019-01-11T09:40:07.277Z,101028.87
2019-01-11T09:42:35.695Z,101030.92
2019-01-11T09:45:06.298Z,101030.83
2019-01-11T09:47:34.741Z,101028.62
2019-01-11T09:50:03.362Z,101039.81
2019-01-11T09:52:31.722Z,101038.13
2019-01-11T09:55:00.187Z,101034.73
2019-01-11T09:57:28.606Z,101032.36
2019-01-11T09:59:56.950Z,101027.28
2019-01-11T10:02:29.226Z,101028.48
2019-01-11T10:04:57.594Z,101022.62
2019-01-11T10:07:26.925Z,101014.94
2019-01-11T10:09:55.362Z,101010.09
2019-01-11T10:12:24.159Z,101017.64
2019-01-11T10:14:52.526Z,101014.77
2019-01-11T10:17:20.855Z,101022.81
2019-01-11T10:19:49.268Z,101029.20
2019-01-11T10:22:17.685Z,101022.42
2019-01-11T10:24:46.101Z,101032.00
2019-01-11T10:27:14.446Z,101026.02
2019-01-11T10:29:42.817Z,101023.11
2019-01-11T10:32:11.159Z,101020.86
2019-01-11T10:34:39.578Z,101020.86
2019-01-11T10:37:07.915Z,101025.21
2019-01-11T10:39:36.274Z,101015.27
2019-01-11T10:42:04.814Z,101004.77
2019-01-11T10:44:33.177Z,100993.09
2019-01-11T10:47:01.549Z,100991.92
2019-01-11T10:49:29.934Z,101001.86
2019-01-11T10:51:58.261Z,101001.48
2019-01-11T10:54:29.362Z,100985.76
2019-01-11T10:56:57.691Z,100987.92
2019-01-11T10:59:26.043Z,100984.32
2019-01-11T11:01:55.222Z,100976.05
2019-01-11T11:04:24.385Z,100971.19
2019-01-11T11:06:53.378Z,100973.91
2019-01-11T11:09:22.586Z,100971.28
2019-01-11T11:11:51.544Z,100967.25
2019-01-11T11:14:20.716Z,100955.95
2019-01-11T11:16:49.656Z,100958.23
2019-01-11T11:19:17.985Z,100947.31
2019-01-11T11:21:46.322Z,100954.55
2019-01-11T11:24:14.692Z,100949.48
2019-01-11T11:26:43.036Z,100957.53
2019-01-11T11:29:11.375Z,100964.05
2019-01-11T11:31:39.735Z,100948.41
2019-01-11T11:34:08.408Z,100957.08
2019-01-11T11:36:36.808Z,100960.56
2019-01-11T11:39:09.194Z,100964.50
2019-01-11T11:41:37.611Z,100960.31
2019-01-11T11:44:06.034Z,100955.27
2019-01-11T11:46:34.372Z,100951.89
2019-01-11T11:49:02.710Z,100950.45
2019-01-11T11:51:31.167Z,100945.05
2019-01-11T11:53:59.502Z,100945.64
2019-01-11T11:56:27.914Z,100942.63
2019-01-11T11:58:56.326Z,100951.17
2019-01-11T12:01:24.749Z,100941.69
2019-01-11T12:03:53.210Z,100944.91
2019-01-11T12:06:21.557Z,100939.52
2019-01-11T12:08:49.977Z,100937.95
2019-01-11T12:11:18.326Z,100935.41
2019-01-11T12:13:46.645Z,100922.67
2019-01-11T12:16:14.981Z,100921.46
2019-01-11T12:18:43.309Z,100916.31
2019-01-11T12:21:11.667Z,100915.70
2019-01-11T12:23:39.998Z,100914.73
2019-01-11T12:26:08.977Z,100912.91
2019-01-11T12:28:37.316Z,100904.52
2019-01-11T12:31:05.673Z,100895.44
2019-01-11T12:33:34.017Z,100898.83
2019-01-11T12:36:02.372Z,100898.62
2019-01-11T12:38:30.720Z,100895.00
2019-01-11T12:40:59.086Z,100901.86
2019-01-11T12:43:27.405Z,100905.59
2019-01-11T12:45:55.825Z,100898.64
2019-01-11T12:48:24.169Z,100897.66
2019-01-11T12:50:52.546Z,100902.61
2019-01-11T12:53:20.917Z,100897.64
2019-01-11T12:55:49.345Z,100896.22
2019-01-11T12:58:17.696Z,100888.64
2019-01-11T13:00:46.124Z,100885.88
2019-01-11T13:03:14.506Z,100883.70
2019-01-11T13:05:42.917Z,100880.60
2019-01-11T13:08:11.245Z,100876.98
2019-01-11T13:10:39.611Z,100875.15
2019-01-11T13:13:08.459Z,100882.03
2019-01-11T13:15:36.738Z,100874.77
2019-01-11T13:18:05.199Z,100878.11
2019-01-11T13:20:33.512Z,100869.69
2019-01-11T13:23:01.980Z,100861.52
2019-01-11T13:25:32.326Z,100851.63
2019-01-11T13:28:00.733Z,100847.53
2019-01-11T13:30:29.157Z,100851.63
2019-01-11T13:32:57.537Z,100850.89
2019-01-11T13:35:25.861Z,100850.80
2019-01-11T13:37:54.213Z,100852.38
2019-01-11T13:40:23.199Z,100856.83
2019-01-11T13:42:51.561Z,100864.39
2019-01-11T13:45:20.134Z,100869.45
2019-01-11T13:47:48.722Z,100873.30
2019-01-11T13:50:20.657Z,100869.07
2019-01-11T13:52:49.032Z,100870.80
2019-01-11T13:55:17.377Z,100869.94
2019-01-11T13:57:45.740Z,100873.78
2019-01-11T14:00:14.744Z,100878.11
2019-01-11T14:02:43.284Z,100875.11
2019-01-11T14:05:12.220Z,100874.98
2019-01-11T14:07:40.698Z,100878.88
2019-01-11T14:10:10.155Z,100867.36
2019-01-11T14:12:38.498Z,100860.86
2019-01-11T14:15:10.538Z,100867.93
2019-01-11T14:17:38.956Z,100864.44
2019-01-11T14:20:10.181Z,100869.94
2019-01-11T14:22:38.750Z,100868.23
2019-01-11T14:25:09.946Z,100865.32
2019-01-11T14:27:38.302Z,100854.11
2019-01-11T14:30:11.124Z,100853.14
2019-01-11T14:32:39.470Z,100859.05
2019-01-11T14:35:08.550Z,100855.48
2019-01-11T14:37:36.934Z,100870.48
2019-01-11T14:40:10.156Z,100873.94
2019-01-11T14:42:38.477Z,100871.80
2019-01-11T14:45:10.925Z,100871.03
2019-01-11T14:47:39.330Z,100865.66
2019-01-11T14:50:10.983Z,100872.75
2019-01-11T14:52:39.389Z,100871.41
2019-01-11T14:55:08.017Z,100874.70
2019-01-11T14:57:36.453Z,100870.50
2019-01-11T15:00:08.415Z,100867.59
2019-01-11T15:02:36.737Z,100863.26
2019-01-11T15:05:07.227Z,100858.20
2019-01-11T15:07:35.530Z,100858.32
2019-01-11T15:10:07.546Z,100861.20
2019-01-11T15:12:35.854Z,100860.36
2019-01-11T15:15:06.029Z,100853.86
2019-01-11T15:17:34.357Z,100855.05
2019-01-11T15:20:04.722Z,100855.63
2019-01-11T15:22:33.070Z,100851.20
2019-01-11T15:25:01.780Z,100846.63
2019-01-11T15:27:30.084Z,100846.83
2019-01-11T15:29:58.421Z,100845.20
2019-01-11T15:32:26.762Z,100843.31
2019-01-11T15:34:55.194Z,100842.22
2019-01-11T15:37:23.524Z,100838.61
2019-01-11T15:39:51.880Z,100836.19
2019-01-11T15:42:20.212Z,100836.34
2019-01-11T15:44:48.905Z,100833.93
2019-01-11T15:47:17.413Z,100825.97
2019-01-11T15:49:45.778Z,100835.59
2019-01-11T15:52:14.109Z,100832.70
2019-01-11T15:54:42.471Z,100825.12
2019-01-11T15:57:11.044Z,100831.53
2019-01-11T15:59:45.009Z,100832.86
2019-01-11T16:02:13.418Z,100827.43
2019-01-11T16:04:41.706Z,100828.15
2019-01-11T16:07:10.533Z,100832.50
2019-01-11T16:09:42.685Z,100835.62
2019-01-11T16:12:11.205Z,100834.86
2019-01-11T16:14:44.926Z,100833.09
2019-01-11T16:17:17.040Z,100829.32
2019-01-11T16:19:45.472Z,100834.41
2019-01-11T16:22:14.582Z,100831.63
2019-01-11T16:24:42.925Z,100829.83
2019-01-11T16:27:11.341Z,100825.12
2019-01-11T16:29:39.692Z,100832.35
2019-01-11T16:32:08.152Z,100823.97
2019-01-11T16:34:36.589Z,100825.64
2019-01-11T16:37:04.929Z,100829.36
2019-01-11T16:39:33.270Z,100827.20
2019-01-11T16:42:01.625Z,100828.15
2019-01-11T16:44:30.127Z,100823.44
2019-01-11T16:46:58.495Z,100816.22
2019-01-11T16:49:26.826Z,100814.28
2019-01-11T16:51:55.188Z,100813.93
2019-01-11T16:54:23.545Z,100822.96
2019-01-11T16:56:51.896Z,100819.83
2019-01-11T16:59:20.213Z,100824.16
2019-01-11T17:01:48.545Z,100826.44
2019-01-11T17:04:16.906Z,100823.45
2019-01-11T17:06:45.291Z,100833.42
2019-01-11T17:09:14.383Z,100828.71
2019-01-11T17:11:42.788Z,100827.05
2019-01-11T17:14:11.178Z,100825.12
2019-01-11T17:16:39.529Z,100832.97
2019-01-11T17:19:07.905Z,100832.22
2019-01-11T17:21:36.300Z,100821.16
2019-01-11T17:24:05.019Z,100828.50
2019-01-11T17:26:33.454Z,100822.25
2019-01-11T17:29:01.822Z,100822.73
2019-01-11T17:31:30.258Z,100821.87
2019-01-11T17:33:58.593Z,100818.51
2019-01-11T17:36:26.955Z,100822.60
2019-01-11T17:38:55.332Z,100822.27
2019-01-11T17:41:23.708Z,100812.55
2019-01-11T17:43:52.040Z,100801.59
2019-01-11T17:46:20.378Z,100805.68
2019-01-11T17:48:48.781Z,100813.03
2019-01-11T17:51:17.171Z,100820.36
2019-01-11T17:53:45.512Z,100810.85
2019-01-11T17:56:14.572Z,100812.02
2019-01-11T17:58:42.963Z,100820.28
2019-01-11T18:01:11.288Z,100816.80
2019-01-11T18:03:39.653Z,100818.61
2019-01-11T18:06:07.987Z,100833.06
2019-01-11T18:08:36.366Z,100821.39
2019-01-11T18:11:04.698Z,100828.00
2019-01-11T18:13:33.082Z,100834.84
2019-01-11T18:16:01.400Z,100838.45
2019-01-11T18:18:29.762Z,100825.81
2019-01-11T18:20:58.189Z,100820.29
2019-01-11T18:23:26.571Z,100821.61
2019-01-11T18:25:54.897Z,100825.71
2019-01-11T18:28:23.388Z,100818.87
2019-01-11T18:30:51.766Z,100820.55
2019-01-11T18:33:20.109Z,100823.42
2019-01-11T18:35:48.467Z,100827.26
2019-01-11T18:38:16.821Z,100823.64
2019-01-11T18:40:45.251Z,100821.48
2019-01-11T18:43:14.093Z,100823.74
2019-01-11T18:46:10.782Z,100817.38
2019-01-11T18:48:39.210Z,100814.38
2019-01-11T18:51:07.626Z,100813.16
2019-01-11T18:53:35.962Z,100818.93
2019-01-11T18:56:05.585Z,100812.70
2019-01-11T18:58:34.157Z,100816.41
2019-01-11T19:01:02.540Z,100816.55
2019-01-11T19:03:30.951Z,100808.92
2019-01-11T19:05:59.962Z,100809.92
2019-01-11T19:08:28.340Z,100806.41
2019-01-11T19:10:56.777Z,100811.70
2019-01-11T19:13:25.118Z,100804.98
2019-01-11T19:15:53.518Z,100799.44
2019-01-11T19:18:21.847Z,100799.43
2019-01-11T19:20:50.211Z,100802.83
2019-01-11T19:23:20.551Z,100807.59
2019-01-11T19:25:48.905Z,100797.76
2019-01-11T19:28:17.312Z,100804.73
2019-01-11T19:30:46.001Z,100801.86
2019-01-11T19:33:14.746Z,100806.41
2019-01-11T19:35:43.167Z,100805.31
2019-01-11T19:38:11.768Z,100815.54
2019-01-11T19:40:40.153Z,100820.56
2019-01-11T19:43:08.504Z,100820.22
2019-01-11T19:45:36.935Z,100819.02
2019-01-11T19:48:05.429Z,100816.83
2019-01-11T19:50:33.746Z,100821.05
2019-01-11T19:53:02.162Z,100826.92
2019-01-11T19:55:30.598Z,100827.63
2019-01-11T19:57:58.957Z,100827.77
2019-01-11T20:00:27.546Z,100831.25
2019-01-11T20:02:55.983Z,100830.27
2019-01-11T20:05:24.543Z,100828.34
2019-01-11T20:07:52.997Z,100821.14
2019-01-11T20:10:24.620Z,100824.63
2019-01-11T20:12:53.213Z,100827.50
2019-01-11T20:15:21.774Z,100821.31
2019-01-11T20:17:50.484Z,100825.55
2019-01-11T20:20:19.082Z,100830.37
2019-01-11T20:22:47.509Z,100828.20
2019-01-11T20:25:19.417Z,100832.44
2019-01-11T20:27:47.938Z,100830.14
2019-01-11T20:30:18.884Z,100827.63
2019-01-11T20:32:47.310Z,100832.22
2019-01-11T20:35:16.726Z,100824.49
2019-01-11T20:37:45.631Z,100827.98
2019-01-11T20:40:15.577Z,100826.87
2019-01-11T20:42:44.244Z,100827.27
2019-01-11T20:45:14.998Z,100829.13
2019-01-11T20:47:43.460Z,100827.45
2019-01-11T20:50:15.782Z,100830.23
2019-01-11T20:52:44.131Z,100832.39
2019-01-11T20:55:13.452Z,100834.42
2019-01-11T20:57:41.946Z,100833.45
2019-01-11T21:00:14.135Z,100827.88
2019-01-11T21:02:42.587Z,100834.72
2019-01-11T21:05:11.727Z,100833.62
2019-01-11T21:07:40.097Z,100839.45
2019-01-11T21:10:10.763Z,100839.02
2019-01-11T21:12:39.171Z,100839.70
2019-01-11T21:15:11.657Z,100843.42
2019-01-11T21:17:39.999Z,100826.20
2019-01-11T21:20:11.397Z,100825.86
2019-01-11T21:22:39.820Z,100830.00
2019-01-11T21:25:10.693Z,100836.50
2019-01-11T21:27:39.038Z,100823.97
2019-01-11T21:30:11.449Z,100830.00
2019-01-11T21:32:39.772Z,100826.97
2019-01-11T21:35:08.509Z,100827.36
2019-01-11T21:37:36.850Z,100828.16
2019-01-11T21:40:07.951Z,100832.40
2019-01-11T21:42:36.395Z,100836.98
2019-01-11T21:45:07.300Z,100832.75
2019-01-11T21:47:35.841Z,100835.25
2019-01-11T21:50:06.805Z,100837.64
2019-01-11T21:52:37.837Z,100831.51
2019-01-11T21:55:07.900Z,100826.64
2019-01-11T21:57:36.263Z,100827.39
2019-01-11T22:00:09.185Z,100829.84
2019-01-11T22:02:37.566Z,100824.70
2019-01-11T22:05:06.198Z,100836.31
2019-01-11T22:07:34.665Z,100834.52
2019-01-11T22:10:05.531Z,100833.23
2019-01-11T22:12:33.910Z,100833.03
2019-01-11T22:15:03.238Z,100836.88
2019-01-11T22:17:31.557Z,100843.06
2019-01-11T22:19:59.898Z,100843.20
2019-01-11T22:22:28.237Z,100843.02
2019-01-11T22:24:56.901Z,100831.45
2019-01-11T22:27:25.697Z,100826.20
2019-01-11T22:29:54.130Z,100829.64
2019-01-11T22:32:22.725Z,100832.63
2019-01-11T22:34:51.168Z,100833.47
2019-01-11T22:37:19.534Z,100846.28
2019-01-11T22:39:47.854Z,100851.72
2019-01-11T22:42:16.229Z,100843.72
2019-01-11T22:44:44.580Z,100849.16
2019-01-11T22:47:13.335Z,100850.55
2019-01-11T22:49:41.662Z,100854.17
2019-01-11T22:52:10.025Z,100851.73
2019-01-11T22:54:38.390Z,100855.91
2019-01-11T22:57:06.965Z,100854.94
2019-01-11T22:59:35.297Z,100846.38
2019-01-11T23:02:05.614Z,100846.45
2019-01-11T23:04:33.942Z,100848.52
2019-01-11T23:07:05.837Z,100845.75
2019-01-11T23:09:37.950Z,100839.47
2019-01-11T23:12:11.770Z,100840.52
2019-01-11T23:14:40.098Z,100844.84
2019-01-11T23:17:12.385Z,100844.81
2019-01-11T23:19:40.810Z,100841.43
2019-01-11T23:22:09.148Z,100843.44
2019-01-11T23:24:37.497Z,100844.95
2019-01-11T23:27:05.926Z,100845.89
2019-01-11T23:29:34.248Z,100852.31
2019-01-11T23:32:02.602Z,100855.45
2019-01-11T23:34:30.941Z,100850.06
2019-01-11T23:36:59.281Z,100846.44
2019-01-11T23:39:27.602Z,100851.13
2019-01-11T23:41:55.929Z,100854.05
2019-01-11T23:44:24.260Z,100857.37
2019-01-11T23:46:52.596Z,100849.91
2019-01-11T23:49:20.969Z,100857.64
2019-01-11T23:51:49.415Z,100855.25
2019-01-11T23:54:24.329Z,100854.69
2019-01-11T23:56:48.102Z,100860.16
2019-01-11T23:59:16.581Z,100864.81
